Time;durP1;ratioP1;P1;durP2;ratioP2;P2;SDS_P1;SDS_P2;PMS_P1;PMS_P2;Temp;Humidity;BMP_temperature;BMP_pressure;BME280_temperature;BME280_humidity;BME280_pressure;Samples;Min_cycle;Max_cycle;Signal;HPM_P1;HPM_P2
2021/08/09 07:36:59;;;;;;;1.75;1.65;;;;;;;21.32;54.84;98804.94;6185000;23;20092;-68
2021/08/09 07:39:25;;;;;;;1.33;1.23;;;;;;;21.51;54.50;98826.44;6169108;23;20497;-68
2021/08/09 07:41:51;;;;;;;3.03;2.15;;;;;;;21.54;54.50;98809.06;6184705;23;20323;-68
2021/08/09 07:44:16;;;;;;;4.18;1.95;;;;;;;21.75;54.17;98812.28;6184746;23;20442;-69
2021/08/09 07:46:42;;;;;;;3.53;1.88;;;;;;;21.92;53.82;98810.84;6184647;23;20013;-72
2021/08/09 07:49:09;;;;;;;3.47;2.03;;;;;;;21.99;53.69;98803.69;6184392;23;20080;-69
2021/08/09 07:51:35;;;;;;;2.08;1.25;;;;;;;21.85;53.72;98803.69;6184600;23;20087;-66
2021/08/09 07:54:00;;;;;;;5.63;4.30;;;;;;;21.67;54.19;98799.00;6184263;23;20037;-68
2021/08/09 07:56:26;;;;;;;5.28;2.10;;;;;;;21.38;54.80;98808.47;6184118;23;20008;-68
2021/08/09 07:58:52;;;;;;;2.65;1.33;;;;;;;21.12;55.37;98810.88;6184211;23;20028;-69
2021/08/09 08:01:17;;;;;;;3.38;2.88;;;;;;;20.80;56.29;98818.06;6183983;23;20092;-67
2021/08/09 08:03:43;;;;;;;4.50;2.95;;;;;;;20.62;56.63;98814.94;6183425;23;20041;-69
2021/08/09 08:06:09;;;;;;;2.25;1.45;;;;;;;20.80;56.14;98816.13;6181649;23;20460;-68
2021/08/09 08:08:34;;;;;;;4.38;2.65;;;;;;;21.11;55.28;98815.63;6181238;23;20016;-69
2021/08/09 08:11:00;;;;;;;3.55;1.73;;;;;;;21.29;54.51;98813.06;6180141;23;20024;-68
2021/08/09 08:13:28;;;;;;;2.30;1.77;;;;;;;21.57;54.22;98800.06;6182122;23;20025;-68
2021/08/09 08:15:53;;;;;;;10.48;2.90;;;;;;;21.83;53.36;98810.72;6180820;23;20009;-71
2021/08/09 08:18:19;;;;;;;1.23;1.17;;;;;;;21.92;53.18;98819.22;6182750;23;20016;-67
2021/08/09 08:24:47;;;;;;;2.60;1.52;;;;;;;21.77;53.77;98811.97;6167573;23;20104;-68
2021/08/09 08:31:16;;;;;;;2.78;1.65;;;;;;;21.30;54.70;98806.38;6179925;23;20063;-69
2021/08/09 08:34:07;;;;;;;3.22;2.78;;;;;;;21.34;54.39;98816.63;6179100;23;20013;-68
2021/08/09 08:57:46;;;;;;;1.50;1.15;;;;;;;22.23;52.39;98825.00;6154247;23;20028;-67
2021/08/09 09:00:14;;;;;;;6.25;1.50;;;;;;;22.00;53.12;98816.53;6154053;23;20105;-67
2021/08/09 09:02:40;;;;;;;2.80;2.15;;;;;;;21.93;53.13;98818.09;6154457;23;20438;-67
2021/08/09 09:05:17;;;;;;;7.55;2.78;;;;;;;22.11;52.76;98814.34;6153638;23;20064;-67
2021/08/09 09:08:16;;;;;;;7.15;1.73;;;;;;;21.97;53.24;98808.78;6154299;23;20438;-68
2021/08/09 09:11:20;;;;;;;5.22;2.50;;;;;;;21.67;53.92;98818.56;6155917;23;20442;-70
2021/08/09 09:14:44;;;;;;;5.35;1.73;;;;;;;21.34;54.55;98808.22;6156141;23;20457;-69
2021/08/09 09:17:33;;;;;;;6.97;2.65;;;;;;;21.18;54.93;98804.06;6154919;23;20037;-70
2021/08/09 09:20:21;;;;;;;4.38;1.40;;;;;;;21.15;54.41;98813.88;6155372;23;20454;-66
2021/08/09 09:22:47;;;;;;;3.50;2.15;;;;;;;20.97;54.80;98814.75;6155958;23;20064;-69
2021/08/09 09:25:12;;;;;;;2.50;1.95;;;;;;;20.80;55.45;98806.91;6155880;23;20442;-69
2021/08/09 09:27:39;;;;;;;2.63;1.73;;;;;;;20.83;55.29;98809.09;6156090;23;20009;-69
2021/08/09 09:30:30;;;;;;;4.25;2.60;;;;;;;20.97;54.51;98798.00;6155671;23;20394;-70
2021/08/09 09:33:05;;;;;;;5.72;3.05;;;;;;;21.00;54.22;98787.03;6156099;23;20052;-71
2021/08/09 09:35:36;;;;;;;2.67;1.55;;;;;;;20.97;54.28;98786.84;6155803;23;20010;-70
2021/08/09 09:38:02;;;;;;;5.10;2.05;;;;;;;20.97;54.09;98792.41;6156288;23;20020;-68
2021/08/09 09:40:38;;;;;;;1.70;1.60;;;;;;;21.06;54.13;98779.41;6156678;23;20022;-72
2021/08/09 09:43:17;;;;;;;2.15;1.67;;;;;;;21.21;53.82;98792.28;6198135;23;20056;-71
2021/08/09 09:45:54;;;;;;;3.83;1.48;;;;;;;21.25;53.41;98781.34;6185432;23;20013;-70
2021/08/09 09:48:36;;;;;;;4.28;2.08;;;;;;;21.37;53.36;98778.88;6185676;23;20009;-68
2021/08/09 09:51:13;;;;;;;5.80;1.58;;;;;;;21.46;52.69;98770.63;6185478;23;20020;-68
2021/08/09 09:53:40;;;;;;;4.15;2.90;;;;;;;21.40;53.00;98769.06;6185377;23;20008;-67
2021/08/09 09:56:06;;;;;;;7.40;1.95;;;;;;;21.40;52.86;98777.44;6185870;23;20021;-69
2021/08/09 09:58:35;;;;;;;1.23;0.77;;;;;;;21.41;52.87;98777.13;6185976;23;20107;-70
2021/08/09 10:01:02;;;;;;;3.80;2.20;;;;;;;21.34;53.28;98773.91;6185132;23;20414;-73
2021/08/09 10:03:30;;;;;;;4.75;1.15;;;;;;;21.21;53.44;98769.94;6185073;23;20016;-71
2021/08/09 10:05:57;;;;;;;14.30;2.22;;;;;;;21.17;53.12;98774.47;6184849;23;20019;-70
2021/08/09 10:08:25;;;;;;;2.35;2.13;;;;;;;21.21;53.10;98766.31;6185110;23;20027;-70
2021/08/09 10:10:53;;;;;;;3.70;1.98;;;;;;;21.30;53.13;98756.09;6185506;23;20337;-73
2021/08/09 10:13:23;;;;;;;3.13;1.17;;;;;;;21.33;52.77;98761.06;6185064;23;20173;-72
2021/08/09 10:15:59;;;;;;;2.72;1.00;;;;;;;21.27;53.13;98762.28;6185283;23;20055;-71
2021/08/09 10:18:28;;;;;;;9.25;2.78;;;;;;;21.19;53.03;98758.25;6184526;23;20075;-71
2021/08/09 10:20:56;;;;;;;0.80;0.80;;;;;;;21.17;52.88;98763.28;6184372;23;20047;-71
2021/08/09 10:23:48;;;;;;;3.25;2.25;;;;;;;21.23;52.84;98748.13;6184947;23;20079;-72
2021/08/09 10:26:31;;;;;;;4.57;1.77;;;;;;;21.37;52.70;98755.72;6185023;23;20045;-72
2021/08/09 10:29:03;;;;;;;2.85;1.95;;;;;;;21.50;52.03;98752.94;6185095;23;20016;-71
2021/08/09 10:31:35;;;;;;;1.75;1.63;;;;;;;21.65;51.74;98751.00;6184945;23;20013;-71
2021/08/09 10:34:04;;;;;;;2.40;1.25;;;;;;;21.75;51.86;98744.41;6185184;23;20070;-73
2021/08/09 10:37:08;;;;;;;1.88;1.63;;;;;;;21.72;51.60;98747.81;6185468;23;20020;-72
2021/08/09 10:39:53;;;;;;;4.68;2.47;;;;;;;21.53;52.41;98738.38;6184994;23;20047;-72
2021/08/09 10:42:37;;;;;;;1.15;1.15;;;;;;;21.63;51.88;98726.16;6185131;23;20021;-72
2021/08/09 10:45:14;;;;;;;1.13;1.02;;;;;;;21.82;51.48;98731.66;6185075;23;20492;-72
2021/08/09 10:47:48;;;;;;;1.35;1.05;;;;;;;21.89;51.67;98725.63;6184894;23;20015;-71
2021/08/09 10:50:22;;;;;;;;;;;;;;;21.98;51.19;98734.97;6185113;23;20080;-72
2021/08/09 10:52:49;;;;;;;2.35;1.60;;;;;;;21.90;51.51;98730.09;6185339;23;20257;-73
2021/08/09 10:55:29;;;;;;;3.05;1.95;;;;;;;21.87;51.83;98722.31;6185035;23;20005;-73
2021/08/09 10:57:59;;;;;;;3.20;3.00;;;;;;;21.87;51.57;98728.72;6185134;23;20009;-73
2021/08/09 11:00:40;;;;;;;6.00;2.20;;;;;;;22.00;51.50;98715.06;6184587;23;20040;-73
2021/08/09 11:03:09;;;;;;;1.35;0.98;;;;;;;22.06;51.33;98713.81;6184835;23;20013;-73
2021/08/09 11:05:35;;;;;;;2.25;2.05;;;;;;;22.23;50.79;98719.56;6184547;23;20028;-73
2021/08/09 11:08:24;;;;;;;8.15;2.38;;;;;;;22.57;50.29;98720.25;6184987;23;20009;-73
2021/08/09 11:10:55;;;;;;;2.22;2.08;;;;;;;22.92;49.80;98720.47;6162281;23;20009;-72
2021/08/09 11:13:24;;;;;;;3.83;1.45;;;;;;;23.24;48.77;98710.16;6185020;23;20013;-71
2021/08/09 11:15:58;;;;;;;2.22;1.58;;;;;;;23.53;48.50;98714.44;6185057;23;20084;-73
2021/08/09 11:18:29;;;;;;;8.15;1.20;;;;;;;23.84;48.34;98721.97;6184959;23;20013;-71
2021/08/09 11:21:10;;;;;;;1.83;1.48;;;;;;;23.90;48.44;98715.06;6184892;23;20100;-72
2021/08/09 11:23:37;;;;;;;5.82;1.67;;;;;;;23.81;48.28;98723.44;6185299;23;20180;-78
2021/08/09 11:26:03;;;;;;;3.20;2.17;;;;;;;23.60;49.06;98714.75;6185052;23;20012;-74
2021/08/09 11:28:29;;;;;;;2.97;1.90;;;;;;;23.28;49.75;98722.38;6184956;23;20040;-73
2021/08/09 11:31:03;;;;;;;3.30;2.10;;;;;;;22.93;50.50;98706.16;6184949;23;20012;-71
2021/08/09 11:33:35;;;;;;;2.80;1.65;;;;;;;22.66;51.22;98707.13;6185022;23;20509;-73
2021/08/09 11:36:09;;;;;;;1.88;1.58;;;;;;;22.55;51.26;98714.94;6184404;23;20378;-72
2021/08/09 11:38:55;;;;;;;12.68;2.03;;;;;;;22.48;51.29;98717.38;6184697;23;20021;-75
2021/08/09 11:41:29;;;;;;;3.90;2.08;;;;;;;22.45;51.59;98711.56;6181863;23;20012;-72
2021/08/09 11:44:08;;;;;;;2.72;1.95;;;;;;;22.40;51.15;98713.34;6158814;23;20103;-71
2021/08/09 11:46:45;;;;;;;3.78;2.15;;;;;;;22.34;51.10;98711.81;6188395;23;20028;-71
2021/08/09 11:49:10;;;;;;;5.00;2.58;;;;;;;22.30;51.44;98710.75;6192696;23;20458;-70
2021/08/09 11:51:36;;;;;;;2.47;1.70;;;;;;;22.30;51.05;98709.94;6183246;23;20036;-74
2021/08/09 11:54:02;;;;;;;1.63;1.50;;;;;;;22.32;51.18;98708.50;6183257;23;20480;-72
2021/08/09 11:56:39;;;;;;;2.30;2.00;;;;;;;22.31;51.13;98700.41;6183977;23;20096;-76
2021/08/09 11:59:15;;;;;;;4.30;2.13;;;;;;;22.30;51.09;98699.56;6182988;23;20442;-72
2021/08/09 12:01:43;;;;;;;2.00;1.63;;;;;;;22.27;51.19;98700.19;6182768;23;20021;-74
2021/08/09 12:04:12;;;;;;;2.60;1.73;;;;;;;22.19;50.98;98710.16;6183000;23;20009;-73
2021/08/09 12:07:10;;;;;;;3.85;2.22;;;;;;;22.09;51.47;98690.00;6182344;23;20077;-73
2021/08/09 12:09:39;;;;;;;7.45;1.90;;;;;;;22.01;51.25;98686.81;6181577;23;20043;-72
2021/08/09 12:12:08;;;;;;;3.30;2.40;;;;;;;21.94;51.47;98689.19;6182854;23;20017;-73
2021/08/09 12:14:35;;;;;;;3.97;1.52;;;;;;;21.87;51.73;98686.81;6183199;23;20088;-72
2021/08/09 12:17:18;;;;;;;2.03;1.67;;;;;;;21.91;51.42;98681.44;6182895;23;20009;-71
2021/08/09 12:19:52;;;;;;;5.72;2.55;;;;;;;21.93;51.48;98676.34;6182562;23;20397;-72
2021/08/09 12:22:24;;;;;;;3.63;2.15;;;;;;;21.94;51.49;98675.22;6183173;23;20442;-73
2021/08/09 12:25:04;;;;;;;3.47;2.72;;;;;;;21.95;51.36;98679.69;6184643;23;20362;-71
2021/08/09 12:27:31;;;;;;;2.83;2.42;;;;;;;21.94;51.37;98682.78;6184452;23;20451;-73
2021/08/09 12:30:24;;;;;;;2.55;1.80;;;;;;;21.96;51.26;98675.72;6184244;23;20017;-72
2021/08/09 12:32:55;;;;;;;3.58;2.72;;;;;;;22.03;50.79;98672.50;6182334;23;20013;-72
2021/08/09 12:35:33;;;;;;;5.05;1.95;;;;;;;22.21;50.57;98673.50;6184931;23;20092;-72
2021/08/09 12:38:18;;;;;;;1.25;1.17;;;;;;;22.45;50.32;98678.81;6184290;23;20350;-74
2021/08/09 12:40:50;;;;;;;2.70;1.55;;;;;;;22.64;49.89;98667.44;6183303;23;20147;-73
2021/08/09 12:43:19;;;;;;;2.13;1.85;;;;;;;22.80;49.57;98664.25;6182477;23;20357;-70
2021/08/09 12:45:45;;;;;;;1.77;1.23;;;;;;;22.83;49.35;98672.81;6185917;23;20079;-73
2021/08/09 12:48:12;;;;;;;6.72;1.98;;;;;;;22.71;49.67;98667.00;6184721;23;20450;-72
2021/08/09 12:50:39;;;;;;;4.93;2.08;;;;;;;22.52;50.13;98661.59;6159533;23;20465;-72
2021/08/09 12:53:07;;;;;;;4.55;2.92;;;;;;;22.26;50.81;98670.59;6185149;23;20009;-72
2021/08/09 12:55:33;;;;;;;6.78;3.45;;;;;;;22.02;51.27;98668.88;6185837;23;20044;-72
2021/08/09 12:58:04;;;;;;;2.60;2.15;;;;;;;21.76;51.71;98660.25;6182608;23;20100;-71
2021/08/09 13:00:30;;;;;;;2.80;1.65;;;;;;;21.65;52.06;98665.22;6185014;23;20013;-71
2021/08/09 13:02:56;;;;;;;1.55;1.42;;;;;;;21.60;52.35;98676.50;6185594;23;20015;-74
2021/08/09 13:05:22;;;;;;;3.03;2.40;;;;;;;21.52;52.25;98671.63;6185099;23;20088;-75
2021/08/09 13:07:47;;;;;;;5.78;1.85;;;;;;;21.43;52.30;98671.50;6185882;23;20354;-71
2021/08/09 13:10:13;;;;;;;4.47;2.30;;;;;;;21.37;52.63;98678.31;6186063;23;20350;-71
2021/08/09 13:12:39;;;;;;;2.30;2.10;;;;;;;21.24;52.95;98676.34;6186159;23;20029;-72
2021/08/09 13:15:06;;;;;;;1.70;1.38;;;;;;;21.00;53.31;98680.16;6185796;23;20060;-71
2021/08/09 13:17:34;;;;;;;3.75;2.67;;;;;;;20.82;53.59;98687.47;6185279;23;20009;-72
2021/08/09 13:20:00;;;;;;;3.67;1.42;;;;;;;20.68;53.72;98683.78;6185237;23;20446;-72
2021/08/09 13:22:29;;;;;;;1.65;1.42;;;;;;;20.62;53.63;98683.81;6185264;23;20013;-70
2021/08/09 13:24:55;;;;;;;5.07;2.80;;;;;;;20.64;53.60;98684.38;6186158;23;20020;-73
2021/08/09 13:27:21;;;;;;;6.57;1.48;;;;;;;20.69;53.34;98679.88;6185912;23;20059;-72
2021/08/09 13:29:47;;;;;;;1.13;1.02;;;;;;;20.78;53.20;98678.03;6185519;23;20017;-71
2021/08/09 13:32:13;;;;;;;6.68;1.85;;;;;;;21.04;52.73;98686.78;6185161;23;20017;-75
2021/08/09 13:34:39;;;;;;;2.47;2.38;;;;;;;21.20;52.08;98676.16;6184935;23;20040;-73
2021/08/09 13:37:04;;;;;;;1.27;1.00;;;;;;;21.27;52.22;98672.94;6158951;23;20021;-75
2021/08/09 13:39:32;;;;;;;6.38;2.55;;;;;;;21.29;52.22;98685.47;6185258;23;20020;-73
2021/08/09 13:41:57;;;;;;;3.15;2.00;;;;;;;21.31;52.23;98679.56;6185318;23;20032;-73
2021/08/09 13:44:23;;;;;;;1.95;1.38;;;;;;;21.18;52.49;98686.78;6185375;23;20017;-71
2021/08/09 13:46:49;;;;;;;1.67;1.42;;;;;;;21.02;52.67;98685.44;6184018;23;20009;-70
2021/08/09 13:49:14;;;;;;;8.30;1.85;;;;;;;20.82;53.01;98690.25;6183443;23;20021;-72
2021/08/09 13:51:40;;;;;;;3.88;1.55;;;;;;;20.63;53.60;98685.50;6184285;23;20044;-70
2021/08/09 13:54:06;;;;;;;1.35;1.25;;;;;;;20.46;53.92;98688.00;6183952;23;20468;-70
2021/08/09 13:56:31;;;;;;;7.78;1.70;;;;;;;20.36;54.38;98693.75;6184243;23;20031;-76
2021/08/09 13:58:58;;;;;;;2.80;2.55;;;;;;;20.26;54.20;98695.56;6183849;23;20099;-76
2021/08/09 14:01:24;;;;;;;2.88;1.45;;;;;;;20.20;54.55;98698.72;6183998;23;20016;-73
2021/08/09 14:04:28;;;;;;;7.85;2.42;;;;;;;20.11;54.76;98692.97;6182696;23;20021;-65
2021/08/09 14:06:56;;;;;;;5.05;1.05;;;;;;;19.98;54.77;98690.94;6180044;23;20458;-72
2021/08/09 14:09:29;;;;;;;2.67;1.33;;;;;;;19.85;55.19;98687.78;6155618;23;20024;-72
2021/08/09 14:11:58;;;;;;;4.00;2.97;;;;;;;19.70;55.47;98694.34;6153823;23;20017;-71
2021/08/09 14:14:27;;;;;;;4.88;2.25;;;;;;;19.63;55.39;98693.88;6155240;23;20012;-68
2021/08/09 14:17:01;;;;;;;3.78;2.60;;;;;;;19.64;55.24;98689.13;6149937;23;20423;-66
2021/08/09 14:19:29;;;;;;;4.18;1.88;;;;;;;19.59;55.47;98698.38;6150932;23;20013;-71
2021/08/09 14:21:59;;;;;;;6.05;2.30;;;;;;;19.51;55.54;98707.41;6156304;23;20009;-75
2021/08/09 14:24:29;;;;;;;2.17;1.85;;;;;;;19.41;55.78;98698.03;6156175;23;20009;-73
2021/08/09 14:26:58;;;;;;;3.40;2.40;;;;;;;19.36;55.73;98697.25;6157416;23;20091;-72
2021/08/09 14:29:32;;;;;;;4.15;1.55;;;;;;;19.23;55.81;98699.63;6156394;23;20087;-73
2021/08/09 14:32:01;;;;;;;4.47;1.00;;;;;;;19.12;55.97;98703.63;6156197;23;20132;-70
2021/08/09 14:34:30;;;;;;;2.97;1.75;;;;;;;18.99;56.49;98704.31;6156410;23;20087;-67
2021/08/09 14:37:01;;;;;;;2.22;1.85;;;;;;;18.90;56.67;98709.69;6155744;23;20005;-66
2021/08/09 14:39:30;;;;;;;3.00;1.88;;;;;;;18.82;56.67;98704.75;6155722;23;20013;-67
2021/08/09 14:41:56;;;;;;;2.72;2.53;;;;;;;18.74;56.69;98703.41;6156529;23;20028;-67
2021/08/09 14:44:23;;;;;;;2.03;1.45;;;;;;;18.66;56.86;98709.59;6155963;23;20009;-65
2021/08/09 14:46:50;;;;;;;4.45;1.58;;;;;;;18.61;57.02;98710.47;6156354;23;20009;-67
2021/08/09 14:49:17;;;;;;;7.50;1.55;;;;;;;18.60;56.94;98716.34;6155547;23;20087;-67
2021/08/09 14:51:46;;;;;;;1.42;1.15;;;;;;;18.54;56.87;98710.81;6158708;23;20033;-68
2021/08/09 14:54:17;;;;;;;3.28;2.08;;;;;;;18.52;56.94;98714.97;6158114;23;20027;-70
2021/08/09 14:56:44;;;;;;;5.90;2.03;;;;;;;18.45;56.99;98712.53;6184834;23;20087;-69
2021/08/09 14:59:13;;;;;;;1.75;0.85;;;;;;;18.43;57.08;98714.75;6157840;23;20422;-68
2021/08/09 15:01:43;;;;;;;2.30;1.63;;;;;;;18.39;57.34;98725.66;6157978;23;20009;-72
2021/08/09 15:04:11;;;;;;;4.45;0.98;;;;;;;18.31;57.41;98728.22;6157969;23;20055;-66
2021/08/09 15:06:40;;;;;;;3.30;1.48;;;;;;;18.21;57.41;98724.38;6157423;23;20013;-70
2021/08/09 15:09:13;;;;;;;0.93;0.90;;;;;;;18.11;57.62;98726.38;6157959;23;20005;-69
2021/08/09 15:11:40;;;;;;;0.63;0.63;;;;;;;17.98;57.88;98728.69;6157988;23;20016;-66
2021/08/09 15:14:08;;;;;;;5.05;1.83;;;;;;;17.88;58.12;98733.44;6157985;23;20048;-64
2021/08/09 15:16:37;;;;;;;1.85;1.38;;;;;;;17.78;58.37;98735.13;6158141;23;20091;-69
2021/08/09 15:19:06;;;;;;;1.13;1.08;;;;;;;17.72;58.11;98744.59;6157646;23;20017;-69
2021/08/09 15:21:34;;;;;;;0.95;0.73;;;;;;;17.67;58.58;98747.41;6157634;23;20024;-69
2021/08/09 15:24:02;;;;;;;1.02;0.93;;;;;;;17.63;58.60;98743.53;6157946;23;20032;-70
2021/08/09 15:26:31;;;;;;;2.88;0.95;;;;;;;17.59;58.55;98742.41;6157746;23;20016;-66
2021/08/09 15:28:58;;;;;;;0.60;0.60;;;;;;;17.55;58.76;98746.88;6157333;23;20013;-67
2021/08/09 15:31:26;;;;;;;1.52;1.42;;;;;;;17.50;58.70;98745.78;6157419;23;20013;-70
2021/08/09 15:33:54;;;;;;;4.18;2.03;;;;;;;17.45;58.73;98740.25;6184626;23;20084;-67
2021/08/09 15:36:22;;;;;;;1.52;1.13;;;;;;;17.41;58.97;98739.13;6156976;23;20013;-66
2021/08/09 15:38:51;;;;;;;1.95;1.73;;;;;;;17.37;58.87;98731.66;6157305;23;20028;-68
2021/08/09 15:41:18;;;;;;;1.33;0.95;;;;;;;17.32;59.08;98733.31;6158400;23;20013;-66
2021/08/09 15:43:45;;;;;;;0.80;0.80;;;;;;;17.26;59.14;98728.91;6157953;23;20040;-69
2021/08/09 15:46:18;;;;;;;2.35;2.20;;;;;;;17.21;59.20;98722.53;6157920;23;20396;-69
2021/08/09 15:48:47;;;;;;;2.35;1.35;;;;;;;17.14;59.34;98723.66;6157426;23;20454;-67
2021/08/09 15:51:14;;;;;;;0.75;0.75;;;;;;;17.09;59.42;98729.22;6157763;23;20446;-67
2021/08/09 15:53:42;;;;;;;2.95;1.23;;;;;;;17.05;59.28;98733.66;6163990;23;20031;-65
2021/08/09 15:56:11;;;;;;;0.40;0.35;;;;;;;16.99;59.48;98732.84;6160694;23;20405;-69
2021/08/09 15:58:41;;;;;;;1.48;1.05;;;;;;;16.91;59.72;98730.63;6157265;23;20013;-68
2021/08/09 16:01:11;;;;;;;0.95;0.93;;;;;;;16.87;59.99;98737.84;6157852;23;20071;-68
2021/08/09 16:03:41;;;;;;;1.15;1.05;;;;;;;16.82;60.02;98735.03;6157822;23;20013;-66
2021/08/09 16:06:11;;;;;;;4.40;2.17;;;;;;;16.79;59.89;98746.69;6157076;23;20354;-66
2021/08/09 16:08:40;;;;;;;0.75;0.75;;;;;;;16.74;60.15;98750.28;6157447;23;20009;-68
2021/08/09 16:11:10;;;;;;;4.80;2.17;;;;;;;16.73;60.05;98759.72;6157469;23;20075;-68
2021/08/09 16:13:40;;;;;;;1.73;1.55;;;;;;;16.73;60.03;98756.13;6157296;23;20067;-67
2021/08/09 16:16:08;;;;;;;1.70;1.60;;;;;;;16.71;60.19;98744.44;6157979;23;20016;-65
2021/08/09 16:18:37;;;;;;;1.38;1.08;;;;;;;16.70;60.25;98749.19;6157869;23;20005;-69
2021/08/09 16:21:08;;;;;;;3.80;1.92;;;;;;;16.67;60.21;98740.59;6184418;23;20016;-67
2021/08/09 16:23:41;;;;;;;2.35;1.55;;;;;;;16.64;60.32;98728.13;6157990;23;20096;-70
2021/08/09 16:26:11;;;;;;;2.17;1.98;;;;;;;16.61;60.47;98739.75;6184578;23;20011;-68
2021/08/09 16:28:42;;;;;;;2.03;1.25;;;;;;;16.55;60.63;98718.66;6158204;23;20140;-69
2021/08/09 16:31:11;;;;;;;1.65;1.17;;;;;;;16.44;60.78;98732.53;6157939;23;20010;-68
2021/08/09 16:33:38;;;;;;;2.33;1.73;;;;;;;16.36;60.92;98735.84;6157810;23;20020;-69
2021/08/09 16:36:06;;;;;;;2.53;0.77;;;;;;;16.29;61.32;98727.78;6157614;23;20051;-69
2021/08/09 16:38:35;;;;;;;1.48;1.30;;;;;;;16.23;61.23;98733.59;6158125;23;20020;-68
2021/08/09 16:41:05;;;;;;;0.80;0.80;;;;;;;16.17;61.41;98729.16;6157553;23;20021;-68
2021/08/09 16:43:38;;;;;;;0.95;0.63;;;;;;;16.13;61.36;98717.78;6128558;23;20056;-68
2021/08/09 16:46:06;;;;;;;1.17;0.70;;;;;;;16.13;61.63;98717.78;6129518;23;20021;-69
2021/08/09 16:48:36;;;;;;;1.70;1.35;;;;;;;16.13;61.54;98715.03;6128387;23;20410;-71
2021/08/09 16:51:03;;;;;;;1.10;1.08;;;;;;;16.13;61.58;98711.44;6128187;23;20451;-69
2021/08/09 16:53:31;;;;;;;1.85;1.75;;;;;;;16.15;61.44;98714.75;6129012;23;20474;-73
2021/08/09 16:55:59;;;;;;;0.60;0.52;;;;;;;16.14;61.49;98710.34;6128721;23;20354;-72
2021/08/09 16:58:27;;;;;;;1.60;1.50;;;;;;;16.12;61.39;98713.34;6128483;23;20144;-68
2021/08/09 17:00:56;;;;;;;3.50;1.92;;;;;;;16.13;61.42;98703.94;6127938;23;20331;-68
2021/08/09 17:03:24;;;;;;;2.90;1.58;;;;;;;16.13;61.65;98709.47;6128593;23;20013;-68
2021/08/09 17:05:51;;;;;;;1.30;1.20;;;;;;;16.11;61.56;98706.16;6127902;23;20068;-71
2021/08/09 17:08:25;;;;;;;1.55;1.45;;;;;;;16.09;61.57;98703.66;6127842;23;20447;-67
2021/08/09 17:10:53;;;;;;;0.20;0.20;;;;;;;16.09;61.57;98716.66;6128251;23;20010;-65
2021/08/09 17:13:21;;;;;;;1.58;0.60;;;;;;;16.06;61.61;98712.53;6128023;23;20009;-70
2021/08/09 17:15:47;;;;;;;0.68;0.68;;;;;;;16.02;61.92;98710.56;6128113;23;20020;-71
2021/08/09 17:18:15;;;;;;;0.40;0.40;;;;;;;15.98;61.85;98706.69;6128024;23;20013;-71
2021/08/09 17:20:41;;;;;;;0.40;0.40;;;;;;;15.93;62.06;98710.28;6128014;23;20446;-68
2021/08/09 17:23:16;;;;;;;0.95;0.88;;;;;;;15.90;62.30;98713.56;6128057;23;20025;-69
2021/08/09 17:25:44;;;;;;;0.43;0.43;;;;;;;15.86;62.10;98718.00;6154496;23;20020;-70
2021/08/09 17:28:12;;;;;;;0.85;0.52;;;;;;;15.82;62.32;98708.56;6129238;23;20013;-67
2021/08/09 17:30:40;;;;;;;0.75;0.75;;;;;;;15.76;62.47;98710.47;6128515;23;20013;-70
2021/08/09 17:33:08;;;;;;;0.75;0.63;;;;;;;15.71;62.65;98711.28;6155795;23;20036;-67
2021/08/09 17:35:37;;;;;;;0.70;0.57;;;;;;;15.69;62.79;98690.50;6129014;23;20385;-69
2021/08/09 17:38:10;;;;;;;2.45;0.77;;;;;;;15.67;62.76;98684.41;6129332;23;20068;-69
2021/08/09 17:40:39;;;;;;;0.47;0.47;;;;;;;15.67;62.60;98693.53;6128686;23;20477;-69
2021/08/09 17:43:07;;;;;;;3.78;1.17;;;;;;;15.67;62.79;98687.19;6129544;23;20084;-66
2021/08/09 17:45:37;;;;;;;1.15;1.05;;;;;;;15.65;62.63;98689.38;6153882;23;20020;-68
2021/08/09 17:48:05;;;;;;;1.23;0.85;;;;;;;15.65;62.63;98689.38;6153172;23;20350;-66
2021/08/09 17:50:35;;;;;;;1.40;1.05;;;;;;;15.64;62.66;98687.72;6152577;23;20040;-67
2021/08/09 17:53:02;;;;;;;1.10;1.00;;;;;;;15.64;62.91;98696.84;6127905;23;20363;-68
2021/08/09 17:55:30;;;;;;;0.47;0.47;;;;;;;15.65;62.73;98686.59;6157538;23;20100;-67
2021/08/09 17:57:59;;;;;;;0.40;0.40;;;;;;;15.66;62.79;98691.03;6155633;23;20014;-70
2021/08/09 18:00:27;;;;;;;0.30;0.30;;;;;;;15.68;62.67;98681.38;6152077;23;20370;-69
2021/08/09 18:02:53;;;;;;;1.35;1.02;;;;;;;15.70;62.82;98683.88;6152822;23;20013;-69
2021/08/09 18:05:22;;;;;;;1.92;0.47;;;;;;;15.70;62.54;98681.09;6155108;23;20017;-69
2021/08/09 18:07:53;;;;;;;1.95;1.27;;;;;;;15.70;62.80;98681.09;6153326;23;20005;-69
2021/08/09 18:10:19;;;;;;;0.65;0.55;;;;;;;15.68;62.75;98684.16;6153537;23;20029;-72
2021/08/09 18:12:49;;;;;;;0.20;0.20;;;;;;;15.69;62.80;98684.97;6153595;23;20137;-69
2021/08/09 18:15:17;;;;;;;3.83;0.88;;;;;;;15.68;62.70;98678.59;6153433;23;20032;-71
2021/08/09 18:17:46;;;;;;;1.95;0.82;;;;;;;15.68;62.78;98695.22;6153594;23;20020;-69
2021/08/09 18:20:15;;;;;;;0.68;0.68;;;;;;;15.68;62.86;98699.91;6153129;23;20040;-68
2021/08/09 18:22:44;;;;;;;1.75;0.77;;;;;;;15.66;62.86;98702.94;6153173;23;20016;-67
2021/08/09 18:25:14;;;;;;;0.45;0.45;;;;;;;15.65;62.92;98692.13;6153027;23;20037;-67
2021/08/09 18:27:41;;;;;;;0.90;0.80;;;;;;;15.64;62.92;98696.03;6153608;23;20101;-69
2021/08/09 18:30:09;;;;;;;1.00;0.55;;;;;;;15.63;62.86;98689.66;6155551;23;20556;-70
2021/08/09 18:32:36;;;;;;;1.17;0.93;;;;;;;15.62;62.98;98696.31;6153387;23;20053;-67
2021/08/09 18:35:08;;;;;;;1.77;1.15;;;;;;;15.62;63.02;98698.22;6153225;23;20024;-71
2021/08/09 18:37:36;;;;;;;0.68;0.68;;;;;;;15.61;63.06;98675.25;6153266;23;20059;-73
2021/08/09 18:40:06;;;;;;;0.88;0.88;;;;;;;15.64;62.92;98684.97;6153483;23;20021;-70
2021/08/09 18:42:37;;;;;;;3.05;1.90;;;;;;;15.62;63.10;98690.78;6153111;23;20359;-67
2021/08/09 18:45:04;;;;;;;2.15;0.75;;;;;;;15.66;62.95;98685.50;6153620;23;20021;-67
2021/08/09 18:47:39;;;;;;;0.75;0.75;;;;;;;15.67;62.92;98685.25;6153647;23;20017;-66
2021/08/09 18:50:08;;;;;;;0.65;0.65;;;;;;;15.69;63.13;98683.03;6153283;23;20393;-67
2021/08/09 18:52:36;;;;;;;0.60;0.60;;;;;;;15.72;62.91;98679.72;6152826;23;20013;-69
2021/08/09 18:55:04;;;;;;;2.40;0.60;;;;;;;15.76;62.98;98680.84;6153581;23;20035;-66
2021/08/09 18:57:32;;;;;;;0.60;0.57;;;;;;;15.81;62.76;98687.53;6153481;23;20020;-69
2021/08/09 19:00:00;;;;;;;3.22;1.00;;;;;;;15.82;62.86;98684.47;6153212;23;20016;-67
2021/08/09 19:02:27;;;;;;;0.80;0.80;;;;;;;15.80;62.88;98685.84;6153208;23;20092;-68
2021/08/09 19:04:56;;;;;;;1.20;0.90;;;;;;;15.80;62.99;98695.00;6152642;23;20009;-65
2021/08/09 19:07:23;;;;;;;2.05;1.10;;;;;;;15.79;63.23;98684.22;6152702;23;20013;-65
2021/08/09 19:09:52;;;;;;;1.65;1.33;;;;;;;15.80;63.32;98686.72;6153079;23;20064;-64
2021/08/09 19:12:18;;;;;;;0.65;0.40;;;;;;;15.80;63.22;98691.38;6152888;23;20010;-68
2021/08/09 19:14:45;;;;;;;3.88;1.55;;;;;;;15.79;63.46;98685.03;6153307;23;20060;-69
2021/08/09 19:17:14;;;;;;;3.75;0.90;;;;;;;15.79;63.37;98679.50;6152923;23;20012;-66
2021/08/09 19:19:41;;;;;;;0.68;0.68;;;;;;;15.79;63.46;98675.91;6152794;23;20457;-67
2021/08/09 19:22:10;;;;;;;0.82;0.82;;;;;;;15.80;63.43;98677.53;6154815;23;20091;-66
2021/08/09 19:24:39;;;;;;;1.10;1.00;;;;;;;15.79;63.66;98686.97;6152804;23;20009;-66
2021/08/09 19:27:07;;;;;;;1.38;0.98;;;;;;;15.79;63.60;98687.78;6152200;23;20362;-67
2021/08/09 19:29:37;;;;;;;1.75;1.65;;;;;;;15.79;63.59;98692.50;6152405;23;20401;-67
2021/08/09 19:32:06;;;;;;;3.95;2.55;;;;;;;15.80;63.79;98680.31;6153113;23;20013;-66
2021/08/09 19:34:33;;;;;;;0.43;0.43;;;;;;;15.80;63.56;98681.16;6152838;23;20029;-67
2021/08/09 19:37:01;;;;;;;3.00;1.27;;;;;;;15.82;63.70;98683.66;6152753;23;20020;-67
2021/08/09 19:39:29;;;;;;;1.13;0.93;;;;;;;15.83;63.79;98677.03;6152879;23;20442;-65
2021/08/09 19:41:56;;;;;;;1.73;1.05;;;;;;;15.81;63.67;98676.44;6152903;23;20443;-66
2021/08/09 19:44:25;;;;;;;0.45;0.45;;;;;;;15.79;63.63;98673.97;6153074;23;20014;-67
2021/08/09 19:46:53;;;;;;;3.00;0.65;;;;;;;15.79;63.56;98667.59;6152886;23;20036;-68
2021/08/09 19:49:21;;;;;;;1.10;0.80;;;;;;;15.78;63.78;98672.28;6152580;23;20088;-65
2021/08/09 19:51:50;;;;;;;1.13;0.73;;;;;;;15.79;63.81;98662.06;6152689;23;20015;-66
2021/08/09 19:54:17;;;;;;;0.40;0.40;;;;;;;15.74;63.87;98654.56;6153154;23;20006;-66